createdAt,value
2019-04-14T00:00:29.238Z,7.23
2019-04-14T00:03:11.130Z,7.67
2019-04-14T00:05:40.853Z,7.63
2019-04-14T00:08:11.299Z,7.50
2019-04-14T00:10:40.248Z,7.50
2019-04-14T00:13:09.124Z,8.20
2019-04-14T00:15:42.706Z,8.50
2019-04-14T00:18:09.675Z,8.07
2019-04-14T00:20:38.699Z,8.20
2019-04-14T00:23:08.771Z,8.20
2019-04-14T00:25:37.693Z,7.47
2019-04-14T00:28:07.347Z,8.63
2019-04-14T00:30:36.364Z,8.27
2019-04-14T00:33:06.295Z,7.47
2019-04-14T00:35:42.759Z,8.00
2019-04-14T00:38:21.825Z,8.33
2019-04-14T00:41:00.634Z,9.03
2019-04-14T00:43:35.991Z,8.30
2019-04-14T00:46:11.102Z,9.00
2019-04-14T00:48:40.945Z,8.40
2019-04-14T00:51:11.178Z,9.40
2019-04-14T00:53:40.326Z,8.20
2019-04-14T00:56:09.103Z,9.03
2019-04-14T00:58:38.947Z,10.07
2019-04-14T01:01:08.964Z,9.50
2019-04-14T01:03:38.024Z,9.30
2019-04-14T01:06:07.646Z,9.63
2019-04-14T01:08:36.688Z,9.30
2019-04-14T01:11:05.593Z,9.00
2019-04-14T01:13:35.385Z,10.03
2019-04-14T01:16:11.546Z,9.83
2019-04-14T01:18:34.941Z,8.67
2019-04-14T01:21:04.602Z,9.87
2019-04-14T01:23:34.706Z,9.17
2019-04-14T01:26:04.930Z,8.97
2019-04-14T01:28:33.943Z,9.00
2019-04-14T01:31:03.385Z,9.47
2019-04-14T01:33:33.595Z,10.60
2019-04-14T01:36:03.837Z,9.37
2019-04-14T01:38:32.838Z,9.87
2019-04-14T01:41:02.189Z,9.13
2019-04-14T01:43:32.110Z,9.43
2019-04-14T01:46:09.704Z,10.67
2019-04-14T01:48:32.459Z,9.47
2019-04-14T01:51:20.533Z,10.77
2019-04-14T01:54:10.626Z,10.07
2019-04-14T01:57:04.643Z,10.07
2019-04-14T01:59:34.659Z,10.17
2019-04-14T02:02:05.156Z,11.10
2019-04-14T02:04:33.974Z,10.97
2019-04-14T02:07:03.809Z,10.63
2019-04-14T02:09:33.593Z,10.70
2019-04-14T02:12:03.742Z,9.57
2019-04-14T02:14:32.831Z,9.30
2019-04-14T02:17:04.220Z,10.13
2019-04-14T02:19:32.751Z,9.70
2019-04-14T02:22:02.726Z,9.63
2019-04-14T02:24:32.984Z,9.80
2019-04-14T02:27:03.368Z,11.03
2019-04-14T02:29:33.911Z,10.10
2019-04-14T02:35:06.248Z,10.97
2019-04-14T02:40:20.924Z,10.30
2019-04-14T02:42:36.667Z,9.97
2019-04-14T02:45:00.700Z,10.30
2019-04-14T02:52:37.486Z,10.43
2019-04-14T02:55:15.866Z,10.33
2019-04-14T02:57:38.381Z,9.87
2019-04-14T03:00:09.133Z,10.90
2019-04-14T03:05:05.005Z,11.07
2019-04-14T03:07:36.116Z,10.17
2019-04-14T03:10:01.237Z,10.40
2019-04-14T03:12:38.428Z,10.33
2019-04-14T03:15:08.037Z,9.43
2019-04-14T03:18:24.458Z,10.23
2019-04-14T03:21:13.438Z,10.03
2019-04-14T03:24:12.752Z,10.17
2019-04-14T03:26:44.245Z,10.80
2019-04-14T03:29:20.589Z,10.80
2019-04-14T03:39:23.488Z,10.77
2019-04-14T03:41:54.798Z,10.10
2019-04-14T03:49:34.733Z,10.57
2019-04-14T03:51:57.948Z,10.57
2019-04-14T03:54:20.203Z,9.73
2019-04-14T03:56:48.927Z,10.43
2019-04-14T03:59:19.456Z,10.83
2019-04-14T04:01:49.934Z,11.33
2019-04-14T04:04:20.405Z,9.87
2019-04-14T04:06:50.874Z,10.67
2019-04-14T04:09:21.915Z,10.90
2019-04-14T04:11:52.055Z,10.27
2019-04-14T04:14:21.031Z,10.80
2019-04-14T04:16:59.372Z,10.13
2019-04-14T04:19:51.322Z,10.77
2019-04-14T04:22:48.619Z,10.47
2019-04-14T04:25:26.648Z,10.40
2019-04-14T04:28:16.723Z,10.93
2019-04-14T04:31:00.559Z,10.43
2019-04-14T04:33:37.229Z,10.33
2019-04-14T04:36:13.989Z,9.90
2019-04-14T04:39:06.018Z,10.67
2019-04-14T04:41:34.988Z,10.17
2019-04-14T04:44:05.080Z,10.67
2019-04-14T04:46:53.134Z,10.43
2019-04-14T04:49:26.036Z,9.47
2019-04-14T04:51:53.036Z,10.43
2019-04-14T04:54:22.099Z,10.23
2019-04-14T04:56:53.768Z,10.37
2019-04-14T04:59:23.472Z,10.30
2019-04-14T05:01:53.774Z,9.97
2019-04-14T05:04:22.800Z,10.33
2019-04-14T05:07:01.653Z,11.10
2019-04-14T05:10:05.116Z,10.13
2019-04-14T05:12:50.170Z,9.63
2019-04-14T05:15:42.314Z,9.90
2019-04-14T05:18:16.178Z,10.00
2019-04-14T05:20:46.321Z,10.87
2019-04-14T05:23:15.404Z,10.10
2019-04-14T05:25:45.224Z,10.70
2019-04-14T05:28:15.465Z,10.23
2019-04-14T05:30:45.728Z,10.83
2019-04-14T05:33:14.648Z,10.93
2019-04-14T05:35:44.524Z,10.43
2019-04-14T05:38:14.663Z,10.27
2019-04-14T05:40:43.595Z,10.37
2019-04-14T05:43:17.120Z,11.47
2019-04-14T05:45:43.691Z,10.37
2019-04-14T05:48:13.845Z,10.10
2019-04-14T05:50:42.956Z,11.07
2019-04-14T05:53:13.140Z,10.73
2019-04-14T05:55:42.167Z,11.00
2019-04-14T05:58:12.155Z,10.40
2019-04-14T06:00:43.817Z,11.50
2019-04-14T06:03:14.559Z,10.47
2019-04-14T06:05:43.541Z,11.13
2019-04-14T06:08:12.539Z,11.00
2019-04-14T06:10:41.473Z,10.70
2019-04-14T06:13:11.788Z,11.20
2019-04-14T06:15:40.928Z,10.80
2019-04-14T06:18:09.852Z,11.23
2019-04-14T06:20:38.659Z,11.37
2019-04-14T06:23:07.550Z,12.60
2019-04-14T06:25:36.784Z,11.33
2019-04-14T06:28:05.743Z,10.80
2019-04-14T06:31:09.216Z,11.47
2019-04-14T06:33:55.955Z,11.40
2019-04-14T06:36:43.963Z,11.30
2019-04-14T06:39:16.603Z,11.67
2019-04-14T06:41:45.628Z,10.87
2019-04-14T06:44:14.585Z,11.50
2019-04-14T06:46:43.589Z,11.60
2019-04-14T06:49:12.547Z,10.83
2019-04-14T06:51:41.545Z,11.33
2019-04-14T06:54:10.464Z,11.43
2019-04-14T06:56:39.218Z,11.57
2019-04-14T06:59:08.236Z,11.53
2019-04-14T07:01:39.004Z,11.83
2019-04-14T07:04:07.928Z,11.40
2019-04-14T07:06:36.884Z,11.10
2019-04-14T07:09:06.914Z,10.57
2019-04-14T07:11:35.835Z,11.73
2019-04-14T07:14:04.744Z,12.17
2019-04-14T07:16:33.697Z,11.40
2019-04-14T07:19:02.575Z,12.10
2019-04-14T07:21:31.471Z,12.30
2019-04-14T07:24:00.448Z,11.80
2019-04-14T07:26:29.263Z,11.73
2019-04-14T07:28:58.293Z,12.57
2019-04-14T07:31:39.957Z,12.20
2019-04-14T07:34:26.780Z,12.10
2019-04-14T07:37:19.116Z,12.47
2019-04-14T07:39:57.462Z,12.20
2019-04-14T07:42:48.672Z,12.00
2019-04-14T07:45:36.771Z,11.60
2019-04-14T07:48:11.491Z,12.03
2019-04-14T07:51:01.987Z,12.30
2019-04-14T07:53:45.225Z,12.37
2019-04-14T07:56:32.333Z,11.73
2019-04-14T07:59:20.324Z,12.00
2019-04-14T08:02:14.393Z,11.97
2019-04-14T08:04:51.597Z,11.53
2019-04-14T08:07:20.752Z,10.60
2019-04-14T08:09:49.685Z,11.07
2019-04-14T08:12:18.591Z,10.73
2019-04-14T08:14:47.421Z,10.47
2019-04-14T08:17:16.403Z,10.23
2019-04-14T08:19:45.324Z,10.47
2019-04-14T08:22:14.304Z,10.87
2019-04-14T08:24:43.324Z,9.80
2019-04-14T08:27:12.392Z,10.77
2019-04-14T08:29:41.384Z,9.33
2019-04-14T08:32:10.321Z,9.87
2019-04-14T08:34:39.287Z,10.23
2019-04-14T08:37:08.240Z,9.53
2019-04-14T08:39:37.146Z,9.77
2019-04-14T08:42:31.277Z,10.40
2019-04-14T08:45:06.105Z,9.93
2019-04-14T08:48:00.027Z,9.70
2019-04-14T08:50:39.621Z,10.17
2019-04-14T08:53:10.296Z,10.03
2019-04-14T08:55:56.893Z,10.13
2019-04-14T08:58:44.040Z,9.27
2019-04-14T09:01:25.943Z,9.10
2019-04-14T09:04:04.872Z,9.77
2019-04-14T09:07:01.911Z,9.07
2019-04-14T09:09:34.502Z,8.60
2019-04-14T09:12:15.522Z,9.50
2019-04-14T09:14:37.233Z,8.50
2019-04-14T09:17:07.529Z,8.77
2019-04-14T09:19:36.388Z,9.13
2019-04-14T09:22:05.257Z,8.87
2019-04-14T09:24:34.128Z,9.20
2019-04-14T09:27:03.184Z,9.43
2019-04-14T09:29:32.013Z,9.10
2019-04-14T09:32:01.176Z,8.23
2019-04-14T09:34:30.064Z,7.90
2019-04-14T09:36:58.887Z,8.83
2019-04-14T09:39:27.827Z,7.63
2019-04-14T09:41:56.743Z,7.90
2019-04-14T09:44:25.617Z,7.93
2019-04-14T09:46:54.515Z,7.37
2019-04-14T09:49:23.441Z,8.10
2019-04-14T09:51:52.353Z,8.30
2019-04-14T09:54:21.225Z,8.00
2019-04-14T09:56:50.188Z,6.93
2019-04-14T09:59:19.192Z,7.47
2019-04-14T10:01:48.117Z,7.03
2019-04-14T10:04:17.147Z,7.33
2019-04-14T10:06:46.002Z,6.90
2019-04-14T10:09:15.057Z,7.97
2019-04-14T10:11:48.996Z,7.53
2019-04-14T10:14:14.596Z,7.10
2019-04-14T10:16:43.430Z,6.60
2019-04-14T10:19:12.235Z,7.43
2019-04-14T10:21:41.233Z,7.13
2019-04-14T10:24:10.212Z,7.60
2019-04-14T10:26:39.041Z,6.70
2019-04-14T10:29:07.891Z,6.60
2019-04-14T10:31:36.768Z,7.47
2019-04-14T10:34:05.657Z,6.87
2019-04-14T10:36:34.640Z,6.40
2019-04-14T10:39:05.425Z,6.33
2019-04-14T10:41:34.201Z,6.87
2019-04-14T10:44:03.125Z,6.47
2019-04-14T10:46:32.102Z,6.57
2019-04-14T10:49:01.016Z,6.77
2019-04-14T10:51:33.727Z,6.43
2019-04-14T10:54:00.699Z,6.50
2019-04-14T10:56:29.664Z,6.47
2019-04-14T10:58:58.492Z,6.90
2019-04-14T11:01:27.453Z,6.70
2019-04-14T11:03:56.473Z,6.50
2019-04-14T11:06:50.556Z,5.90
2019-04-14T11:09:19.501Z,7.27
2019-04-14T11:11:48.505Z,7.00
2019-04-14T11:14:17.368Z,5.80
2019-04-14T11:16:46.243Z,6.13
2019-04-14T11:19:15.165Z,6.03
2019-04-14T11:21:44.056Z,5.70
2019-04-14T11:24:12.935Z,6.50
2019-04-14T11:26:41.789Z,5.97
2019-04-14T11:29:10.589Z,7.00
2019-04-14T11:32:10.429Z,5.77
2019-04-14T11:35:01.308Z,6.40
2019-04-14T11:37:46.232Z,6.20
2019-04-14T11:40:18.092Z,6.90
2019-04-14T11:42:52.483Z,6.50
2019-04-14T11:45:17.672Z,6.13
2019-04-14T11:47:46.643Z,6.13
2019-04-14T11:50:17.024Z,5.70
2019-04-14T11:52:45.957Z,5.30
2019-04-14T11:55:14.763Z,6.30
2019-04-14T11:57:43.722Z,6.57
2019-04-14T12:00:43.937Z,6.50
2019-04-14T12:03:32.484Z,6.53
2019-04-14T12:06:23.655Z,7.60
2019-04-14T12:08:59.293Z,6.73
2019-04-14T12:11:28.228Z,6.60
2019-04-14T12:13:57.216Z,6.17
2019-04-14T12:16:26.184Z,6.90
2019-04-14T12:18:55.068Z,6.30
2019-04-14T12:21:23.977Z,5.63
2019-04-14T12:23:52.927Z,5.70
2019-04-14T12:26:21.944Z,6.80
2019-04-14T12:28:51.562Z,6.30
2019-04-14T12:31:21.761Z,6.53
2019-04-14T12:33:50.838Z,6.13
2019-04-14T12:36:20.176Z,6.37
2019-04-14T12:38:49.040Z,6.80
2019-04-14T12:41:23.970Z,6.00
2019-04-14T12:44:13.889Z,5.93
2019-04-14T12:47:05.902Z,6.70
2019-04-14T12:49:40.396Z,6.20
2019-04-14T12:52:21.495Z,6.13
2019-04-14T12:54:46.705Z,6.43
2019-04-14T12:57:17.287Z,5.70
2019-04-14T12:59:46.176Z,6.07
2019-04-14T13:02:18.628Z,5.30
2019-04-14T13:04:47.784Z,6.13
2019-04-14T13:07:16.629Z,5.83
2019-04-14T13:09:45.451Z,5.43
2019-04-14T13:12:14.330Z,6.33
2019-04-14T13:14:43.188Z,5.47
2019-04-14T13:17:12.104Z,5.83
2019-04-14T13:19:41.231Z,4.97
2019-04-14T13:22:10.292Z,6.70
2019-04-14T13:24:39.601Z,5.97
2019-04-14T13:27:08.595Z,5.70
2019-04-14T13:29:37.478Z,5.60
2019-04-14T13:32:06.979Z,6.50
2019-04-14T13:34:35.954Z,5.70
2019-04-14T13:37:04.966Z,6.00
2019-04-14T13:39:33.893Z,5.67
2019-04-14T13:42:02.844Z,5.50
2019-04-14T13:44:31.712Z,5.63
2019-04-14T13:47:00.699Z,5.93
2019-04-14T13:49:29.627Z,5.77
2019-04-14T13:51:58.624Z,5.87
2019-04-14T13:54:27.543Z,5.90
2019-04-14T13:56:56.493Z,5.90
2019-04-14T13:59:25.521Z,5.50
2019-04-14T14:01:54.460Z,5.73
2019-04-14T14:04:23.401Z,5.37
2019-04-14T14:06:52.316Z,5.63
2019-04-14T14:09:21.224Z,5.17
2019-04-14T14:12:04.640Z,5.80
2019-04-14T14:15:01.604Z,5.80
2019-04-14T14:17:49.586Z,6.03
2019-04-14T14:20:25.297Z,5.90
2019-04-14T14:23:31.216Z,5.70
2019-04-14T14:26:03.313Z,5.73
2019-04-14T14:28:32.185Z,5.33
2019-04-14T14:31:01.044Z,5.70
2019-04-14T14:33:29.913Z,4.87
2019-04-14T14:35:58.749Z,5.50
2019-04-14T14:38:27.672Z,5.60
2019-04-14T14:40:59.459Z,5.30
2019-04-14T14:43:28.391Z,5.67
2019-04-14T14:46:19.105Z,5.93
2019-04-14T14:48:55.615Z,5.30
2019-04-14T14:51:32.108Z,5.03
2019-04-14T14:54:01.071Z,6.20
2019-04-14T14:56:30.038Z,5.67
2019-04-14T14:58:58.948Z,6.13
2019-04-14T15:01:28.040Z,5.90
2019-04-14T15:03:57.005Z,5.17
2019-04-14T15:06:25.986Z,5.00
2019-04-14T15:08:54.885Z,5.53
2019-04-14T15:11:23.834Z,5.73
2019-04-14T15:13:52.861Z,5.90
2019-04-14T15:16:21.874Z,5.70
2019-04-14T15:18:50.873Z,5.77
2019-04-14T15:21:19.851Z,5.67
2019-04-14T15:23:48.732Z,5.30
2019-04-14T15:26:17.791Z,5.60
2019-04-14T15:28:46.769Z,5.33
2019-04-14T15:31:15.651Z,5.87
2019-04-14T15:33:44.593Z,5.80
2019-04-14T15:36:13.528Z,6.30
2019-04-14T15:38:42.399Z,6.10
2019-04-14T15:41:11.339Z,5.40
2019-04-14T15:43:40.303Z,5.43
2019-04-14T15:46:09.376Z,5.57
2019-04-14T15:48:38.360Z,6.03
2019-04-14T15:51:07.337Z,5.23
2019-04-14T15:53:38.145Z,6.20
2019-04-14T15:56:07.569Z,6.13
2019-04-14T15:58:53.894Z,6.13
2019-04-14T16:01:48.649Z,5.40
2019-04-14T16:04:36.643Z,5.97
2019-04-14T16:07:15.664Z,5.07
2019-04-14T16:10:06.788Z,6.10
2019-04-14T16:12:42.056Z,5.60
2019-04-14T16:15:23.536Z,5.60
2019-04-14T16:18:11.559Z,5.83
2019-04-14T16:20:42.289Z,5.40
2019-04-14T16:23:11.251Z,5.93
2019-04-14T16:26:05.420Z,6.13
2019-04-14T16:29:00.334Z,5.90
2019-04-14T16:31:47.778Z,5.47
2019-04-14T16:34:20.456Z,6.30
2019-04-14T16:36:49.854Z,5.57
2019-04-14T16:39:18.817Z,6.33
2019-04-14T16:41:47.817Z,5.97
2019-04-14T16:44:16.744Z,5.77
2019-04-14T16:46:45.667Z,5.50
2019-04-14T16:49:14.640Z,5.53
2019-04-14T16:51:48.238Z,5.03
2019-04-14T16:54:25.241Z,5.43
2019-04-14T16:57:09.052Z,5.50
2019-04-14T16:59:37.941Z,5.87
2019-04-14T17:02:10.975Z,6.00
2019-04-14T17:04:39.094Z,5.70
2019-04-14T17:07:08.086Z,5.50
2019-04-14T17:09:37.048Z,6.10
2019-04-14T17:12:05.898Z,5.57
2019-04-14T17:14:42.633Z,5.53
2019-04-14T17:17:45.692Z,5.10
2019-04-14T17:20:33.624Z,5.57
2019-04-14T17:23:19.516Z,6.13
2019-04-14T17:26:05.587Z,5.40
2019-04-14T17:28:56.709Z,6.50
2019-04-14T17:32:02.672Z,5.37
2019-04-14T17:34:38.012Z,5.33
2019-04-14T17:37:20.812Z,5.40
2019-04-14T17:39:53.677Z,6.30
2019-04-14T17:42:29.244Z,5.67
2019-04-14T17:45:08.067Z,5.70
2019-04-14T17:47:51.515Z,5.37
2019-04-14T17:50:41.379Z,6.03
2019-04-14T17:53:30.808Z,6.10
2019-04-14T17:56:09.199Z,5.37
2019-04-14T17:58:58.869Z,5.63
2019-04-14T18:01:38.225Z,5.47
2019-04-14T18:04:15.454Z,5.07
2019-04-14T18:07:03.477Z,5.93
2019-04-14T18:09:49.820Z,5.60
2019-04-14T18:12:28.591Z,5.97
2019-04-14T18:15:05.220Z,6.20
2019-04-14T18:17:41.972Z,5.93
2019-04-14T18:20:15.851Z,5.80
2019-04-14T18:22:44.856Z,6.47
2019-04-14T18:25:13.887Z,5.60
2019-04-14T18:28:03.086Z,6.40
2019-04-14T18:30:36.226Z,6.03
2019-04-14T18:33:14.017Z,6.43
2019-04-14T18:36:05.045Z,5.80
2019-04-14T18:38:51.675Z,6.50
2019-04-14T18:41:48.746Z,6.07
2019-04-14T18:44:25.715Z,6.57
2019-04-14T18:47:25.652Z,6.03
2019-04-14T18:50:16.796Z,6.70
2019-04-14T18:53:00.152Z,7.20
2019-04-14T18:55:39.020Z,6.90
2019-04-14T18:58:23.369Z,6.63
2019-04-14T19:00:55.494Z,7.87
2019-04-14T19:03:24.299Z,7.30
2019-04-14T19:05:53.207Z,7.27
2019-04-14T19:08:22.216Z,6.87
2019-04-14T19:11:08.647Z,7.67
2019-04-14T19:13:37.788Z,7.37
2019-04-14T19:16:19.828Z,7.30
2019-04-14T19:18:51.417Z,6.53
2019-04-14T19:21:23.456Z,7.00
2019-04-14T19:23:53.691Z,8.30
2019-04-14T19:26:22.711Z,7.60
2019-04-14T19:28:51.778Z,7.87
2019-04-14T19:31:20.613Z,7.80
2019-04-14T19:33:49.669Z,8.53
2019-04-14T19:36:18.698Z,8.30
2019-04-14T19:38:47.691Z,7.70
2019-04-14T19:41:16.660Z,7.20
2019-04-14T19:43:45.697Z,8.43
2019-04-14T19:46:14.684Z,7.27
2019-04-14T19:48:43.733Z,7.63
2019-04-14T19:51:12.642Z,7.70
2019-04-14T19:53:41.538Z,7.60
2019-04-14T19:56:10.475Z,7.40
2019-04-14T19:58:39.351Z,7.53
2019-04-14T20:01:08.415Z,7.30
2019-04-14T20:03:37.382Z,8.10
2019-04-14T20:06:06.491Z,7.37
2019-04-14T20:08:35.546Z,7.37
2019-04-14T20:11:04.692Z,7.33
2019-04-14T20:13:38.375Z,8.00
2019-04-14T20:16:28.257Z,7.37
2019-04-14T20:19:19.389Z,9.23
2019-04-14T20:22:07.364Z,7.37
2019-04-14T20:25:01.300Z,7.97
2019-04-14T20:27:37.388Z,7.70
2019-04-14T20:30:13.884Z,7.93
2019-04-14T20:32:43.508Z,7.53
2019-04-14T20:35:31.744Z,7.40
2019-04-14T20:38:00.740Z,8.17
2019-04-14T20:40:29.683Z,8.60
2019-04-14T20:42:58.712Z,8.33
2019-04-14T20:45:27.669Z,8.27
2019-04-14T20:47:56.892Z,8.10
2019-04-14T20:50:25.826Z,8.03
2019-04-14T20:52:54.616Z,7.97
2019-04-14T20:55:23.547Z,8.30
2019-04-14T20:57:52.497Z,7.97
2019-04-14T21:00:22.081Z,8.40
2019-04-14T21:03:28.143Z,7.83
2019-04-14T21:06:14.143Z,8.43
2019-04-14T21:09:00.890Z,8.63
2019-04-14T21:11:34.115Z,8.53
2019-04-14T21:14:28.176Z,8.10
2019-04-14T21:17:15.300Z,8.50
2019-04-14T21:20:03.329Z,8.30
2019-04-14T21:22:50.044Z,8.73
2019-04-14T21:25:59.298Z,8.63
2019-04-14T21:28:35.797Z,8.53
2019-04-14T21:31:17.095Z,8.57
2019-04-14T21:33:57.624Z,8.13
2019-04-14T21:36:31.170Z,8.97
2019-04-14T21:39:10.706Z,7.90
2019-04-14T21:41:39.733Z,8.43
2019-04-14T21:44:09.861Z,8.73
2019-04-14T21:46:38.826Z,8.40
2019-04-14T21:49:07.708Z,8.33
2019-04-14T21:52:03.496Z,8.47
2019-04-14T21:54:33.742Z,8.20
2019-04-14T21:57:23.097Z,7.93
2019-04-14T22:00:19.518Z,7.93
2019-04-14T22:03:06.307Z,7.50
2019-04-14T22:06:03.646Z,7.80
2019-04-14T22:08:36.142Z,7.90
2019-04-14T22:11:07.939Z,8.20
2019-04-14T22:13:36.936Z,8.37
2019-04-14T22:16:06.185Z,7.97
2019-04-14T22:18:35.137Z,7.70
2019-04-14T22:21:04.194Z,8.40
2019-04-14T22:23:33.291Z,7.87
2019-04-14T22:26:02.114Z,7.60
2019-04-14T22:28:31.027Z,8.40
2019-04-14T22:31:00.099Z,8.00
2019-04-14T22:33:29.096Z,8.50
2019-04-14T22:35:58.040Z,7.83
2019-04-14T22:38:26.980Z,7.60
2019-04-14T22:40:56.025Z,7.63
2019-04-14T22:43:24.927Z,7.83
2019-04-14T22:45:53.844Z,7.63
2019-04-14T22:48:22.665Z,8.30
2019-04-14T22:50:51.565Z,7.77
2019-04-14T22:53:20.541Z,7.83
2019-04-14T22:55:49.509Z,8.37
2019-04-14T22:58:18.510Z,7.13
2019-04-14T23:00:57.255Z,7.90
2019-04-14T23:03:34.785Z,7.67
2019-04-14T23:06:22.737Z,7.90
2019-04-14T23:08:55.236Z,7.37
2019-04-14T23:11:47.250Z,7.40
2019-04-14T23:14:27.506Z,7.83
2019-04-14T23:17:14.346Z,7.10
2019-04-14T23:19:47.088Z,7.63
2019-04-14T23:22:22.707Z,8.20
2019-04-14T23:24:51.715Z,7.90
2019-04-14T23:27:20.699Z,7.43
2019-04-14T23:29:50.937Z,7.50
2019-04-14T23:32:20.020Z,7.77
2019-04-14T23:34:48.940Z,7.87
2019-04-14T23:37:18.188Z,7.93
2019-04-14T23:39:47.139Z,7.27
2019-04-14T23:42:16.136Z,8.17
2019-04-14T23:44:45.024Z,6.43
2019-04-14T23:47:13.937Z,8.67
2019-04-14T23:49:43.017Z,7.63
2019-04-14T23:52:11.933Z,8.23
2019-04-14T23:54:40.878Z,7.43
2019-04-14T23:57:09.819Z,8.00
2019-04-14T23:59:38.711Z,7.67
